createdAt,value
2022-11-12T00:00:23.856Z,10.20
2022-11-12T00:03:09.971Z,11.30
2022-11-12T00:05:55.641Z,11.10
2022-11-12T00:08:41.783Z,11.00
2022-11-12T00:11:27.529Z,11.40
2022-11-12T00:14:13.555Z,10.90
2022-11-12T00:16:59.710Z,10.80
2022-11-12T00:19:45.953Z,11.00
2022-11-12T00:22:31.842Z,11.20
2022-11-12T00:25:17.905Z,10.70
2022-11-12T00:28:09.380Z,10.60
2022-11-12T00:30:55.246Z,10.50
2022-11-12T00:33:42.985Z,10.40
2022-11-12T00:36:29.038Z,10.80
2022-11-12T00:39:15.297Z,10.50
2022-11-12T00:42:01.312Z,10.00
2022-11-12T00:44:49.797Z,10.00
2022-11-12T00:47:37.172Z,9.90
2022-11-12T00:50:23.845Z,9.80
2022-11-12T00:53:10.258Z,10.10
2022-11-12T00:56:07.153Z,9.60
2022-11-12T00:58:53.556Z,9.50
2022-11-12T01:01:41.581Z,10.20
2022-11-12T01:04:29.433Z,9.30
2022-11-12T01:07:18.742Z,9.30
2022-11-12T01:10:05.662Z,9.30
2022-11-12T01:12:51.646Z,9.20
2022-11-12T01:15:42.021Z,9.10
2022-11-12T01:18:28.575Z,9.10
2022-11-12T01:21:15.207Z,9.00
2022-11-12T01:24:01.833Z,8.90
2022-11-12T01:26:48.396Z,8.90
2022-11-12T01:29:34.349Z,10.10
2022-11-12T01:32:20.437Z,8.90
2022-11-12T01:35:06.739Z,9.00
2022-11-12T01:37:52.890Z,9.10
2022-11-12T01:40:38.922Z,9.20
2022-11-12T01:43:24.740Z,10.70
2022-11-12T01:46:19.130Z,10.10
2022-11-12T01:49:11.204Z,9.60
2022-11-12T01:52:03.658Z,11.10
2022-11-12T01:54:53.590Z,10.50
2022-11-12T01:57:51.824Z,10.30
2022-11-12T02:00:38.479Z,10.20
2022-11-12T02:03:25.529Z,9.90
2022-11-12T02:06:14.144Z,11.00
2022-11-12T02:09:00.965Z,10.80
2022-11-12T02:11:47.093Z,10.00
2022-11-12T02:14:33.351Z,10.10
2022-11-12T02:17:19.291Z,10.10
2022-11-12T02:20:08.470Z,10.10
2022-11-12T02:22:54.607Z,10.20
2022-11-12T02:25:40.215Z,10.70
2022-11-12T02:28:27.481Z,10.70
2022-11-12T02:31:14.063Z,10.40
2022-11-12T02:34:00.007Z,11.00
2022-11-12T02:36:46.247Z,10.50
2022-11-12T02:39:32.138Z,10.50
2022-11-12T02:42:17.971Z,10.60
2022-11-12T02:45:04.317Z,10.60
2022-11-12T02:47:50.653Z,10.60
2022-11-12T02:50:36.916Z,10.60
2022-11-12T02:53:22.984Z,11.00
2022-11-12T02:56:08.723Z,11.70
2022-11-12T02:58:54.682Z,10.80
2022-11-12T03:01:40.711Z,10.80
2022-11-12T03:04:26.660Z,10.80
2022-11-12T03:07:12.721Z,10.80
2022-11-12T03:09:58.563Z,10.90
2022-11-12T03:12:44.446Z,10.90
2022-11-12T03:15:30.995Z,11.00
2022-11-12T03:18:17.025Z,11.00
2022-11-12T03:21:02.940Z,8.90
2022-11-12T03:23:48.928Z,11.00
2022-11-12T03:26:36.110Z,11.40
2022-11-12T03:29:22.062Z,11.10
2022-11-12T03:32:07.818Z,11.10
2022-11-12T03:34:55.597Z,11.20
2022-11-12T03:37:41.978Z,11.70
2022-11-12T03:40:28.450Z,11.30
2022-11-12T03:43:14.694Z,11.30
2022-11-12T03:46:00.751Z,11.40
2022-11-12T03:48:47.111Z,11.40
2022-11-12T03:51:33.295Z,11.40
2022-11-12T03:54:20.158Z,11.50
2022-11-12T03:57:06.162Z,11.60
2022-11-12T03:59:51.982Z,11.60
2022-11-12T04:02:38.665Z,11.60
2022-11-12T04:05:43.779Z,12.20
2022-11-12T04:08:36.021Z,11.70
2022-11-12T04:11:21.857Z,11.80
2022-11-12T04:14:07.710Z,11.80
2022-11-12T04:17:12.662Z,11.80
2022-11-12T04:20:17.461Z,12.00
2022-11-12T04:23:03.925Z,11.80
2022-11-12T04:26:13.052Z,11.80
2022-11-12T04:29:17.796Z,11.80
2022-11-12T04:32:04.114Z,11.70
2022-11-12T04:34:50.207Z,11.70
2022-11-12T04:37:46.504Z,11.90
2022-11-12T04:40:50.916Z,11.50
2022-11-12T04:43:55.681Z,11.70
2022-11-12T04:46:41.878Z,11.40
2022-11-12T04:49:27.910Z,12.20
2022-11-12T04:52:14.317Z,11.10
2022-11-12T04:55:00.717Z,11.80
2022-11-12T04:57:46.834Z,10.80
2022-11-12T05:00:33.055Z,11.40
2022-11-12T05:03:19.313Z,11.10
2022-11-12T05:06:26.988Z,10.50
2022-11-12T05:09:12.849Z,10.50
2022-11-12T05:11:59.689Z,11.20
2022-11-12T05:14:45.557Z,10.70
2022-11-12T05:17:31.579Z,10.40
2022-11-12T05:20:18.215Z,10.50
2022-11-12T05:23:07.341Z,10.40
2022-11-12T05:25:54.156Z,10.40
2022-11-12T05:28:39.985Z,10.30
2022-11-12T05:31:25.835Z,10.60
2022-11-12T05:34:12.400Z,10.40
2022-11-12T05:36:58.609Z,10.80
2022-11-12T05:39:44.555Z,11.20
2022-11-12T05:42:30.665Z,10.90
2022-11-12T05:45:16.970Z,11.00
2022-11-12T05:48:03.012Z,11.40
2022-11-12T05:51:11.803Z,11.10
2022-11-12T05:53:58.501Z,11.10
2022-11-12T05:56:44.950Z,10.90
2022-11-12T05:59:30.932Z,11.00
2022-11-12T06:02:16.941Z,11.00
2022-11-12T06:05:03.157Z,11.20
2022-11-12T06:07:49.093Z,11.20
2022-11-12T06:10:35.453Z,11.10
2022-11-12T06:13:22.834Z,11.30
2022-11-12T06:16:09.231Z,11.40
2022-11-12T06:18:55.372Z,11.40
2022-11-12T06:21:41.331Z,11.60
2022-11-12T06:24:35.023Z,11.50
2022-11-12T06:27:23.955Z,11.50
2022-11-12T06:30:10.679Z,11.50
2022-11-12T06:32:57.122Z,10.60
2022-11-12T06:35:43.401Z,11.60
2022-11-12T06:38:30.665Z,11.60
2022-11-12T06:41:16.854Z,11.50
2022-11-12T06:44:04.886Z,11.80
2022-11-12T06:46:51.211Z,11.70
2022-11-12T06:49:37.390Z,11.70
2022-11-12T06:52:23.183Z,11.70
2022-11-12T06:55:09.270Z,12.70
2022-11-12T06:57:55.171Z,11.80
2022-11-12T07:00:41.566Z,12.20
2022-11-12T07:03:27.835Z,11.90
2022-11-12T07:06:19.036Z,11.90
2022-11-12T07:09:06.474Z,11.90
2022-11-12T07:11:54.046Z,11.90
2022-11-12T07:14:40.170Z,12.00
2022-11-12T07:17:26.185Z,12.30
2022-11-12T07:20:12.326Z,12.00
2022-11-12T07:23:01.722Z,12.00
2022-11-12T07:25:47.655Z,12.00
2022-11-12T07:28:33.816Z,12.00
2022-11-12T07:31:21.298Z,12.10
2022-11-12T07:34:07.630Z,12.10
2022-11-12T07:36:53.337Z,12.10
2022-11-12T07:39:41.975Z,12.20
2022-11-12T07:42:28.052Z,12.20
2022-11-12T07:45:14.135Z,12.20
2022-11-12T07:48:00.306Z,12.20
2022-11-12T07:50:46.447Z,12.30
2022-11-12T07:53:33.199Z,12.30
2022-11-12T07:56:22.050Z,12.40
2022-11-12T07:59:08.250Z,12.60
2022-11-12T08:01:54.480Z,12.40
2022-11-12T08:04:41.018Z,12.40
2022-11-12T08:07:27.173Z,12.30
2022-11-12T08:10:13.151Z,12.50
2022-11-12T08:13:02.034Z,10.80
2022-11-12T08:15:52.118Z,12.80
2022-11-12T08:18:42.834Z,12.70
2022-11-12T08:21:28.906Z,12.80
2022-11-12T08:24:15.031Z,12.90
2022-11-12T08:27:01.294Z,13.10
2022-11-12T08:29:49.995Z,11.90
2022-11-12T08:32:38.809Z,12.60
2022-11-12T08:35:27.736Z,13.10
2022-11-12T08:38:14.149Z,13.20
2022-11-12T08:41:04.834Z,13.20
2022-11-12T08:43:53.536Z,13.30
2022-11-12T08:46:39.491Z,13.30
2022-11-12T08:49:25.736Z,13.30
2022-11-12T08:52:19.246Z,13.30
2022-11-12T08:55:11.527Z,13.40
2022-11-12T08:58:04.044Z,13.40
2022-11-12T09:00:50.975Z,12.10
2022-11-12T09:03:37.359Z,13.50
2022-11-12T09:06:23.843Z,13.60
2022-11-12T09:09:14.353Z,13.60
2022-11-12T09:12:08.188Z,13.60
2022-11-12T09:15:30.762Z,13.60
2022-11-12T09:18:22.451Z,13.70
2022-11-12T09:21:13.694Z,13.60
2022-11-12T09:23:59.751Z,13.70
2022-11-12T09:26:54.776Z,13.70
2022-11-12T09:30:00.984Z,13.80
2022-11-12T09:33:01.692Z,13.80
2022-11-12T09:35:57.872Z,13.80
2022-11-12T09:38:43.776Z,13.90
2022-11-12T09:41:42.906Z,13.90
2022-11-12T09:44:35.578Z,14.00
2022-11-12T09:47:45.255Z,13.90
2022-11-12T09:53:58.832Z,14.00
2022-11-12T09:56:44.885Z,14.10
2022-11-12T09:59:34.401Z,14.10
2022-11-12T10:03:00.721Z,12.10
2022-11-12T10:06:10.078Z,14.20
2022-11-12T10:09:18.644Z,14.40
2022-11-12T10:12:45.074Z,14.50
2022-11-12T10:15:58.559Z,14.60
2022-11-12T10:19:11.445Z,14.70
2022-11-12T10:22:25.734Z,14.80
2022-11-12T10:25:14.698Z,14.80
2022-11-12T10:28:11.666Z,14.90
2022-11-12T10:31:09.021Z,14.90
2022-11-12T10:34:11.773Z,15.00
2022-11-12T10:37:05.363Z,14.50
2022-11-12T10:40:20.998Z,14.90
2022-11-12T10:43:16.008Z,15.10
2022-11-12T10:46:24.286Z,15.00
2022-11-12T10:49:16.432Z,15.00
2022-11-12T10:52:02.233Z,15.00
2022-11-12T10:55:02.971Z,15.00
2022-11-12T10:58:09.408Z,14.90
2022-11-12T11:01:04.861Z,14.90
2022-11-12T11:03:56.084Z,14.80
2022-11-12T11:06:44.734Z,14.80
2022-11-12T11:09:32.498Z,14.80
2022-11-12T11:12:33.878Z,14.90
2022-11-12T11:15:25.378Z,15.00
2022-11-12T11:18:14.478Z,15.00
2022-11-12T11:21:24.466Z,15.10
2022-11-12T11:24:39.316Z,15.20
2022-11-12T11:27:33.953Z,15.20
2022-11-12T11:30:23.996Z,15.20
2022-11-12T11:33:44.795Z,15.20
2022-11-12T11:36:49.821Z,15.20
2022-11-12T11:40:06.677Z,15.10
2022-11-12T11:43:16.886Z,14.10
2022-11-12T11:46:24.436Z,15.20
2022-11-12T11:49:34.627Z,15.20
2022-11-12T11:52:26.601Z,15.30
2022-11-12T11:55:38.594Z,15.30
2022-11-12T11:59:03.539Z,15.40
2022-11-12T12:02:20.642Z,15.40
2022-11-12T12:05:26.618Z,15.40
2022-11-12T12:08:53.275Z,15.30
2022-11-12T12:11:57.499Z,15.30
2022-11-12T12:15:09.650Z,15.30
2022-11-12T12:18:17.012Z,15.20
2022-11-12T12:21:14.375Z,15.00
2022-11-12T12:24:15.270Z,14.90
2022-11-12T12:27:21.751Z,14.90
2022-11-12T12:30:21.928Z,14.70
2022-11-12T12:33:41.911Z,14.70
2022-11-12T12:36:42.065Z,14.70
2022-11-12T12:40:04.711Z,14.90
2022-11-12T12:43:51.562Z,14.60
2022-11-12T12:47:13.076Z,14.60
2022-11-12T12:50:20.140Z,14.40
2022-11-12T12:53:19.995Z,14.40
2022-11-12T12:56:32.637Z,14.40
2022-11-12T12:59:23.855Z,14.30
2022-11-12T13:02:21.975Z,14.40
2022-11-12T13:05:32.326Z,14.40
2022-11-12T13:08:24.053Z,14.40
2022-11-12T13:11:50.138Z,14.40
2022-11-12T13:14:44.363Z,14.40
2022-11-12T13:17:44.956Z,14.40
2022-11-12T13:20:39.163Z,14.40
2022-11-12T13:24:10.205Z,14.40
2022-11-12T13:27:03.016Z,14.40
2022-11-12T13:29:51.407Z,15.70
2022-11-12T13:32:49.750Z,14.60
2022-11-12T13:35:39.521Z,14.50
2022-11-12T13:38:26.373Z,14.50
2022-11-12T13:41:42.220Z,14.50
2022-11-12T13:44:31.789Z,15.50
2022-11-12T13:47:22.050Z,14.50
2022-11-12T13:50:17.021Z,14.50
2022-11-12T13:53:13.277Z,14.50
2022-11-12T13:56:01.711Z,14.50
2022-11-12T13:59:00.915Z,14.50
2022-11-12T14:01:50.575Z,14.60
2022-11-12T14:04:36.378Z,13.60
2022-11-12T14:07:42.725Z,14.60
2022-11-12T14:10:34.269Z,14.60
2022-11-12T14:13:47.689Z,14.60
2022-11-12T14:17:04.719Z,14.60
2022-11-12T14:20:16.333Z,14.60
2022-11-12T14:23:24.209Z,14.60
2022-11-12T14:26:29.960Z,14.60
2022-11-12T14:29:22.399Z,14.60
2022-11-12T14:32:09.445Z,14.50
2022-11-12T14:34:58.675Z,14.50
2022-11-12T14:37:51.881Z,15.00
2022-11-12T14:41:26.095Z,14.80
2022-11-12T14:44:20.875Z,14.30
2022-11-12T14:47:10.111Z,14.30
2022-11-12T14:49:56.314Z,14.20
2022-11-12T14:52:47.171Z,14.20
2022-11-12T14:55:36.508Z,14.20
2022-11-12T14:58:24.667Z,14.10
2022-11-12T15:01:44.964Z,14.00
2022-11-12T15:04:27.094Z,13.90
2022-11-12T15:07:28.397Z,13.80
2022-11-12T15:10:37.350Z,13.80
2022-11-12T15:13:27.632Z,13.80
2022-11-12T15:16:37.889Z,13.80
2022-11-12T15:19:44.544Z,13.80
2022-11-12T15:22:37.791Z,13.70
2022-11-12T15:25:39.456Z,13.70
2022-11-12T15:28:28.074Z,12.00
2022-11-12T15:31:51.136Z,13.50
2022-11-12T15:35:30.461Z,13.50
2022-11-12T15:38:28.511Z,13.00
2022-11-12T15:41:37.081Z,13.30
2022-11-12T15:44:23.397Z,13.20
2022-11-12T15:47:21.720Z,13.10
2022-11-12T15:50:21.826Z,13.10
2022-11-12T15:53:15.795Z,12.90
2022-11-12T15:56:25.496Z,12.60
2022-11-12T15:59:21.100Z,12.90
2022-11-12T16:02:29.215Z,12.80
2022-11-12T16:05:17.557Z,14.40
2022-11-12T16:08:03.833Z,12.80
2022-11-12T16:10:49.952Z,12.70
2022-11-12T16:13:36.618Z,12.80
2022-11-12T16:16:22.754Z,12.90
2022-11-12T16:19:17.902Z,12.80
2022-11-12T16:22:20.192Z,13.00
2022-11-12T16:25:10.208Z,12.90
2022-11-12T16:28:01.726Z,12.40
2022-11-12T16:30:50.663Z,12.30
2022-11-12T16:33:41.118Z,12.30
2022-11-12T16:36:27.172Z,12.30
2022-11-12T16:39:13.702Z,10.30
2022-11-12T16:41:59.774Z,12.10
2022-11-12T16:44:45.834Z,12.10
2022-11-12T16:47:32.107Z,12.10
2022-11-12T16:50:22.258Z,12.00
2022-11-12T16:53:08.153Z,12.00
2022-11-12T16:55:53.868Z,12.00
2022-11-12T16:58:41.238Z,12.50
2022-11-12T17:01:32.068Z,11.90
2022-11-12T17:04:19.614Z,11.80
2022-11-12T17:07:06.534Z,11.80
2022-11-12T17:09:54.240Z,11.80
2022-11-12T17:12:43.187Z,11.70
2022-11-12T17:15:28.910Z,11.90
2022-11-12T17:18:22.088Z,11.60
2022-11-12T17:21:15.972Z,11.60
2022-11-12T17:24:01.907Z,11.40
2022-11-12T17:26:48.137Z,11.30
2022-11-12T17:29:34.027Z,11.30
2022-11-12T17:32:20.087Z,11.50
2022-11-12T17:35:06.850Z,11.20
2022-11-12T17:37:52.911Z,11.10
2022-11-12T17:40:41.215Z,10.90
2022-11-12T17:43:27.127Z,11.00
2022-11-12T17:46:14.823Z,11.00
2022-11-12T17:49:05.367Z,10.90
2022-11-12T17:51:52.024Z,10.90
2022-11-12T17:54:38.422Z,10.80
2022-11-12T17:57:24.416Z,10.70
2022-11-12T18:00:13.760Z,10.70
2022-11-12T18:03:00.109Z,10.70
2022-11-12T18:05:46.613Z,10.70
2022-11-12T18:08:48.438Z,10.60
2022-11-12T18:12:26.504Z,9.80
2022-11-12T18:15:26.636Z,10.50
2022-11-12T18:22:22.780Z,9.70
2022-11-12T18:30:32.974Z,10.50
2022-11-12T18:45:56.858Z,11.10
2022-11-12T18:51:08.097Z,10.80
2022-11-12T18:58:07.492Z,11.60
2022-11-12T19:05:12.371Z,10.90
2022-11-12T19:12:22.609Z,11.50
2022-11-12T19:15:29.177Z,11.40
2022-11-12T19:18:17.731Z,11.20
2022-11-12T19:21:09.196Z,11.30
2022-11-12T19:24:07.499Z,11.30
2022-11-12T19:26:57.570Z,11.40
2022-11-12T19:30:16.152Z,11.40
2022-11-12T19:44:08.727Z,11.20
2022-11-12T19:48:14.146Z,11.40
2022-11-12T19:51:44.319Z,10.90
2022-11-12T19:59:34.161Z,11.30
2022-11-12T20:03:41.994Z,10.70
2022-11-12T20:18:25.999Z,11.40
2022-11-12T20:22:04.916Z,11.40
2022-11-12T20:24:22.539Z,11.40
2022-11-12T20:27:08.896Z,11.50
2022-11-12T20:29:57.476Z,11.50
2022-11-12T20:32:43.857Z,11.50
2022-11-12T20:35:30.271Z,12.70
2022-11-12T20:38:16.476Z,11.50
2022-11-12T20:41:04.604Z,12.10
2022-11-12T20:44:03.437Z,11.60
2022-11-12T20:46:49.712Z,11.60
2022-11-12T20:49:48.569Z,12.60
2022-11-12T20:52:44.431Z,10.40
2022-11-12T20:55:52.586Z,11.50
2022-11-12T21:02:34.096Z,13.20
2022-11-12T21:05:45.334Z,11.90
2022-11-12T21:08:56.460Z,12.30
2022-11-12T21:15:32.605Z,11.60
2022-11-12T21:18:37.837Z,11.60
2022-11-12T21:21:31.336Z,11.80
2022-11-12T21:24:20.022Z,11.70
2022-11-12T21:27:32.620Z,11.70
2022-11-12T21:30:23.434Z,11.60
2022-11-12T21:33:15.123Z,12.80
2022-11-12T21:36:20.351Z,11.70
2022-11-12T21:39:13.975Z,11.70
2022-11-12T21:42:10.557Z,11.80
2022-11-12T21:44:56.722Z,11.90
2022-11-12T21:51:19.515Z,11.90
2022-11-12T21:54:16.556Z,11.20
2022-11-12T21:57:49.632Z,12.00
2022-11-12T22:00:50.165Z,12.10
2022-11-12T22:03:48.793Z,12.00
2022-11-12T22:06:56.220Z,11.80
2022-11-12T22:11:22.471Z,11.70
2022-11-12T22:13:25.459Z,12.30
2022-11-12T22:16:23.674Z,12.20
2022-11-12T22:19:25.917Z,12.30
2022-11-12T22:22:14.296Z,11.30
2022-11-12T22:25:00.317Z,12.20
2022-11-12T22:27:46.679Z,13.00
2022-11-12T22:34:01.343Z,12.20
2022-11-12T22:36:47.820Z,12.20
2022-11-12T22:39:43.509Z,12.30
2022-11-12T22:42:32.032Z,12.40
2022-11-12T22:45:22.367Z,12.30
2022-11-12T22:48:13.307Z,12.30
2022-11-12T22:51:04.330Z,12.90
2022-11-12T22:53:55.463Z,12.30
2022-11-12T22:56:47.820Z,12.30
2022-11-12T22:59:34.134Z,12.40
2022-11-12T23:02:20.184Z,12.40
2022-11-12T23:05:06.735Z,12.30
2022-11-12T23:07:52.852Z,12.40
2022-11-12T23:10:44.458Z,12.30
2022-11-12T23:13:33.339Z,12.40
2022-11-12T23:16:26.393Z,12.40
2022-11-12T23:19:12.206Z,12.40
2022-11-12T23:21:58.163Z,12.30
2022-11-12T23:24:44.046Z,12.40
2022-11-12T23:27:30.371Z,12.40
2022-11-12T23:30:16.803Z,12.40
2022-11-12T23:33:03.111Z,12.40
2022-11-12T23:35:49.535Z,12.40
2022-11-12T23:38:37.675Z,12.40
2022-11-12T23:41:26.235Z,12.40
2022-11-12T23:44:12.499Z,12.40
2022-11-12T23:46:58.888Z,12.40
2022-11-12T23:49:45.046Z,12.50
2022-11-12T23:52:31.131Z,12.50
2022-11-12T23:55:17.015Z,12.60
2022-11-12T23:58:03.380Z,12.50
